Time;durP1;ratioP1;P1;durP2;ratioP2;P2;SDS_P1;SDS_P2;PMS_P1;PMS_P2;Temp;Humidity;BMP_temperature;BMP_pressure;BME280_temperature;BME280_humidity;BME280_pressure;Samples;Min_cycle;Max_cycle;Signal;HPM_P1;HPM_P2
2023/06/28 04:01:03;;;;;;;2.53;2.00;;;14.50;99.90;;;;;;5730897;23;21005;-64
2023/06/28 04:03:29;;;;;;;1.70;1.53;;;14.50;99.90;;;;;;4986450;28;20478;-67
2023/06/28 04:05:56;;;;;;;1.70;1.70;;;14.60;99.90;;;;;;4993707;28;20470;-66
2023/06/28 04:08:26;;;;;;;3.90;1.40;;;14.70;99.90;;;;;;4994398;28;20467;-66
2023/06/28 04:10:53;;;;;;;1.90;1.80;;;14.70;99.90;;;;;;4988087;28;20487;-66
2023/06/28 04:13:20;;;;;;;10.43;1.87;;;14.80;99.90;;;;;;4975450;28;20471;-66
2023/06/28 04:15:47;;;;;;;1.93;1.83;;;14.80;99.90;;;;;;4974067;28;20467;-67
2023/06/28 04:18:15;;;;;;;1.40;1.40;;;14.80;99.90;;;;;;4975747;28;20471;-67
2023/06/28 04:20:42;;;;;;;3.93;3.73;;;14.90;99.90;;;;;;4974994;28;20491;-67
2023/06/28 04:23:08;;;;;;;1.43;1.40;;;15.00;99.90;;;;;;4973553;28;20494;-67
2023/06/28 04:25:37;;;;;;;4.63;2.40;;;15.20;99.90;;;;;;4975714;28;20463;-67
2023/06/28 04:28:04;;;;;;;6.07;2.70;;;15.80;99.90;;;;;;4976278;28;20558;-67
2023/06/28 04:30:32;;;;;;;2.73;1.80;;;16.50;99.90;;;;;;4975671;28;20487;-67
2023/06/28 04:33:04;;;;;;;1.10;1.10;;;17.10;99.90;;;;;;4974902;28;20475;-67
2023/06/28 04:35:34;;;;;;;1.27;1.27;;;17.70;99.90;;;;;;4978861;28;20471;-67
2023/06/28 04:38:03;;;;;;;0.80;0.73;;;18.20;99.90;;;;;;4974137;28;20549;-67
2023/06/28 04:40:30;;;;;;;0.80;0.80;;;18.70;99.90;;;;;;4974637;28;20467;-67
2023/06/28 04:42:57;;;;;;;1.60;1.10;;;19.10;99.90;;;;;;4973233;28;20557;-65
2023/06/28 04:45:35;;;;;;;1.00;1.00;;;19.50;99.90;;;;;;4974123;28;20467;-67
2023/06/28 04:48:02;;;;;;;0.70;0.70;;;19.90;99.90;;;;;;4973841;28;20468;-67
2023/06/28 04:50:29;;;;;;;4.30;1.10;;;20.20;99.90;;;;;;4974345;28;20461;-67
2023/06/28 04:52:57;;;;;;;2.93;0.80;;;20.40;99.90;;;;;;4974146;28;20929;-67
2023/06/28 04:55:24;;;;;;;1.03;0.73;;;20.80;99.90;;;;;;4974616;28;20480;-67
2023/06/28 04:57:52;;;;;;;0.40;0.40;;;21.00;99.90;;;;;;4975058;28;20491;-67
2023/06/28 05:00:19;;;;;;;1.13;1.10;;;21.40;99.90;;;;;;4973295;28;20468;-67
2023/06/28 05:02:45;;;;;;;0.63;0.63;;;21.60;99.90;;;;;;4974422;28;20466;-65
2023/06/28 05:05:14;;;;;;;1.20;1.03;;;21.90;99.90;;;;;;4973124;28;21002;-67
2023/06/28 05:07:40;;;;;;;0.47;0.40;;;22.30;99.90;;;;;;4974275;28;20556;-68
2023/06/28 05:10:09;;;;;;;2.50;0.93;;;22.40;99.90;;;;;;4974521;28;20471;-68
2023/06/28 05:12:36;;;;;;;0.70;0.70;;;22.50;99.90;;;;;;4973974;28;20476;-68
2023/06/28 05:15:03;;;;;;;1.80;0.60;;;22.70;99.90;;;;;;4973901;28;20472;-69
2023/06/28 05:17:30;;;;;;;0.60;0.60;;;23.00;99.90;;;;;;4973125;28;20498;-68
2023/06/28 05:19:56;;;;;;;1.07;0.70;;;23.20;99.90;;;;;;4973629;28;20464;-69
2023/06/28 05:22:24;;;;;;;0.60;0.60;;;23.30;99.90;;;;;;4973764;28;20758;-68
2023/06/28 05:24:51;;;;;;;0.50;0.50;;;23.30;99.90;;;;;;4971939;28;20463;-68
2023/06/28 05:27:21;;;;;;;1.10;0.90;;;23.20;99.90;;;;;;4973796;28;20455;-68
2023/06/28 05:29:48;;;;;;;10.33;1.13;;;23.30;99.90;;;;;;4973702;28;20467;-67
2023/06/28 05:32:14;;;;;;;1.30;1.20;;;23.40;99.90;;;;;;4974227;28;20492;-68
2023/06/28 05:34:41;;;;;;;0.93;0.50;;;23.50;99.90;;;;;;4973080;28;20483;-67
2023/06/28 05:37:08;;;;;;;0.77;0.77;;;23.30;99.90;;;;;;4971462;28;20598;-67
2023/06/28 05:39:35;;;;;;;0.50;0.50;;;23.50;99.90;;;;;;4971780;28;20463;-69
2023/06/28 05:42:02;;;;;;;2.67;0.80;;;23.60;99.90;;;;;;4973406;28;20488;-68
2023/06/28 05:44:30;;;;;;;0.47;0.40;;;23.60;99.90;;;;;;4972844;28;20473;-68
2023/06/28 05:46:57;;;;;;;0.60;0.60;;;23.80;99.90;;;;;;4973264;28;20582;-67
2023/06/28 05:49:24;;;;;;;0.53;0.53;;;23.80;99.90;;;;;;4972568;28;20845;-68
2023/06/28 05:51:51;;;;;;;1.03;0.93;;;23.90;99.90;;;;;;4972727;28;20479;-68
2023/06/28 05:54:18;;;;;;;0.43;0.43;;;24.10;99.90;;;;;;4973011;28;20951;-69
2023/06/28 05:56:44;;;;;;;0.63;0.63;;;23.90;99.90;;;;;;4973286;28;20506;-69
2023/06/28 05:59:11;;;;;;;0.53;0.53;;;23.80;99.90;;;;;;4973082;28;20468;-69
2023/06/28 06:01:39;;;;;;;1.70;0.87;;;23.70;99.90;;;;;;4972014;28;21165;-68
2023/06/28 06:04:06;;;;;;;0.60;0.60;;;23.60;99.90;;;;;;4977979;28;20558;-69
2023/06/28 06:06:33;;;;;;;0.57;0.57;;;23.70;99.90;;;;;;4977447;28;20467;-71
2023/06/28 06:08:59;;;;;;;1.70;0.53;;;23.90;99.90;;;;;;4977901;28;20470;-68
2023/06/28 06:11:26;;;;;;;2.27;0.83;;;23.90;99.90;;;;;;4977724;28;20491;-70
2023/06/28 06:13:53;;;;;;;0.70;0.70;;;24.20;99.90;;;;;;4978282;28;20484;-69
2023/06/28 06:16:20;;;;;;;2.23;1.87;;;24.10;99.90;;;;;;4978549;28;20471;-68
2023/06/28 06:18:48;;;;;;;0.60;0.60;;;24.10;99.90;;;;;;4978191;28;20463;-67
2023/06/28 06:21:15;;;;;;;0.50;0.50;;;24.10;99.90;;;;;;4977740;28;20493;-67
2023/06/28 06:23:41;;;;;;;0.90;0.90;;;24.00;99.90;;;;;;4978019;28;20477;-69
2023/06/28 06:26:08;;;;;;;2.00;0.53;;;24.40;99.90;;;;;;4977785;28;20460;-70
2023/06/28 06:28:35;;;;;;;0.70;0.40;;;24.90;99.90;;;;;;4975069;28;20460;-69
2023/06/28 06:31:02;;;;;;;0.40;0.30;;;25.20;99.90;;;;;;4976932;28;21019;-71
2023/06/28 06:33:28;;;;;;;0.67;0.67;;;25.30;99.90;;;;;;4975134;28;20464;-68
2023/06/28 06:35:56;;;;;;;1.33;0.93;;;25.40;99.90;;;;;;4974793;28;20530;-70
2023/06/28 06:38:23;;;;;;;0.40;0.40;;;25.40;99.90;;;;;;4977337;28;20502;-69
2023/06/28 06:40:50;;;;;;;0.33;0.33;;;25.20;99.90;;;;;;4975843;28;21018;-68
2023/06/28 06:43:17;;;;;;;1.60;0.67;;;25.10;99.90;;;;;;4974506;28;20482;-69
2023/06/28 06:45:43;;;;;;;0.63;0.63;;;24.80;99.90;;;;;;4976436;28;20518;-69
2023/06/28 06:48:10;;;;;;;0.70;0.70;;;24.50;99.90;;;;;;4977553;28;20470;-69
2023/06/28 06:50:37;;;;;;;0.57;0.53;;;24.60;99.90;;;;;;4972844;28;20837;-68
2023/06/28 06:53:05;;;;;;;1.70;0.80;;;24.70;99.90;;;;;;4971606;28;20900;-68
2023/06/28 06:55:33;;;;;;;0.70;0.60;;;25.30;99.90;;;;;;4971920;28;20908;-68
2023/06/28 06:58:00;;;;;;;0.67;0.67;;;25.60;99.90;;;;;;4971190;28;20491;-68
2023/06/28 07:00:27;;;;;;;0.50;0.50;;;25.50;99.90;;;;;;4971518;28;20460;-68
2023/06/28 07:02:53;;;;;;;0.67;0.67;;;25.30;99.90;;;;;;4972352;28;20476;-67
2023/06/28 07:05:20;;;;;;;0.70;0.70;;;25.40;99.90;;;;;;4971903;28;20475;-68
2023/06/28 07:07:47;;;;;;;0.43;0.43;;;25.60;99.90;;;;;;4971577;28;20463;-68
2023/06/28 07:10:15;;;;;;;0.50;0.50;;;25.60;99.90;;;;;;4971756;28;20463;-67
2023/06/28 07:12:42;;;;;;;0.47;0.47;;;26.10;99.90;;;;;;4971114;28;20472;-68
2023/06/28 07:15:10;;;;;;;0.87;0.50;;;26.20;99.90;;;;;;4971442;28;20460;-67
2023/06/28 07:17:37;;;;;;;0.43;0.43;;;26.60;99.90;;;;;;4971534;28;21015;-67
2023/06/28 07:20:05;;;;;;;0.70;0.70;;;26.50;99.90;;;;;;4970920;28;20492;-67
2023/06/28 07:22:31;;;;;;;0.50;0.50;;;26.60;99.90;;;;;;4971344;28;20479;-67
2023/06/28 07:25:02;;;;;;;0.50;0.50;;;26.50;99.90;;;;;;4971916;28;20474;-67
2023/06/28 07:27:30;;;;;;;1.13;0.70;;;26.80;99.90;;;;;;4972799;28;20544;-68
2023/06/28 07:29:57;;;;;;;0.50;0.50;;;27.60;99.90;;;;;;4971759;28;20816;-68
2023/06/28 07:32:26;;;;;;;0.67;0.40;;;27.20;99.90;;;;;;4971669;28;20499;-68
2023/06/28 07:34:53;;;;;;;0.20;0.20;;;26.60;99.90;;;;;;4972178;28;20472;-66
2023/06/28 07:37:19;;;;;;;0.77;0.60;;;26.20;99.90;;;;;;4974973;28;20538;-67
2023/06/28 07:39:46;;;;;;;0.30;0.30;;;26.10;99.90;;;;;;4975483;28;20464;-67
2023/06/28 07:42:13;;;;;;;1.13;0.90;;;26.20;99.90;;;;;;4975219;28;20479;-67
2023/06/28 07:44:41;;;;;;;0.60;0.60;;;26.30;99.90;;;;;;4974868;28;20867;-67
2023/06/28 07:47:08;;;;;;;1.20;0.60;;;26.00;99.90;;;;;;4973738;28;20839;-67
2023/06/28 07:49:35;;;;;;;0.50;0.40;;;25.50;99.90;;;;;;4975270;28;20459;-67
2023/06/28 07:52:01;;;;;;;1.33;0.70;;;24.80;99.90;;;;;;4974620;28;20488;-67
2023/06/28 07:54:28;;;;;;;1.13;0.67;;;24.50;99.90;;;;;;4975141;28;20490;-68
2023/06/28 07:56:55;;;;;;;0.57;0.57;;;23.90;99.90;;;;;;4975061;28;20464;-67
2023/06/28 07:59:21;;;;;;;0.80;0.80;;;23.40;99.90;;;;;;4972953;28;20475;-67
2023/06/28 08:01:50;;;;;;;0.37;0.37;;;23.40;99.90;;;;;;4968577;28;20506;-67
2023/06/28 08:07:36;;;;;;;0.60;0.60;;;24.30;99.90;;;;;;4952242;28;20453;-67
2023/06/28 08:10:33;;;;;;;0.50;0.50;;;25.00;99.90;;;;;;4975013;28;20525;-67
2023/06/28 08:13:29;;;;;;;2.63;0.67;;;24.70;99.90;;;;;;4974803;28;20473;-67
2023/06/28 08:16:40;;;;;;;0.53;0.53;;;24.00;99.90;;;;;;4973027;28;20568;-69
2023/06/28 08:19:48;;;;;;;0.67;0.67;;;23.60;99.90;;;;;;4970687;28;20559;-67
2023/06/28 08:22:22;;;;;;;0.80;0.80;;;23.20;99.90;;;;;;4974357;28;20487;-68
2023/06/28 08:25:19;;;;;;;0.50;0.50;;;23.70;99.90;;;;;;4974557;28;20466;-69
2023/06/28 08:28:26;;;;;;;1.23;0.53;;;24.10;99.90;;;;;;4974712;28;20487;-69
2023/06/28 08:34:03;;;;;;;0.83;0.43;;;25.40;99.90;;;;;;4914419;29;20462;-66
2023/06/28 08:37:10;;;;;;;;;;;;;;;;;;;;;
2023/06/28 08:40:17;;;;;;;0.60;0.60;;;25.60;99.90;;;;;;4911111;29;20828;-69
2023/06/28 08:43:10;;;;;;;0.93;0.70;;;24.80;99.90;;;;;;4912376;29;20467;-66
2023/06/28 08:45:37;;;;;;;1.90;0.60;;;24.30;99.90;;;;;;4905109;29;20475;-66
2023/06/28 08:48:24;;;;;;;0.50;0.50;;;24.60;99.90;;;;;;4905632;29;20470;-67
2023/06/28 08:50:51;;;;;;;0.40;0.40;;;24.80;99.90;;;;;;4956118;28;20562;-67
2023/06/28 08:53:23;;;;;;;0.87;0.87;;;24.90;99.90;;;;;;4975289;28;20957;-68
2023/06/28 08:55:50;;;;;;;0.80;0.80;;;25.20;99.90;;;;;;4975900;28;20540;-67
2023/06/28 08:59:39;;;;;;;0.80;0.80;;;25.20;99.90;;;;;;4976039;28;20487;-68
2023/06/28 09:05:29;;;;;;;0.53;0.53;;;25.00;99.90;;;;;;4850885;29;20568;-67
2023/06/28 09:08:26;;;;;;;0.60;0.60;;;25.00;99.90;;;;;;4894762;29;20503;-67
2023/06/28 09:15:00;;;;;;;0.60;0.60;;;25.60;99.90;;;;;;4881299;29;20495;-68
2023/06/28 09:17:36;;;;;;;1.43;1.03;;;25.20;99.90;;;;;;4839357;29;20503;-67
2023/06/28 09:20:20;;;;;;;0.60;0.60;;;24.70;99.90;;;;;;4948650;28;20530;-67
2023/06/28 09:25:53;;;;;;;1.07;1.07;;;24.40;99.90;;;;;;4953431;28;20905;-67
2023/06/28 09:28:53;;;;;;;0.50;0.50;;;24.40;99.90;;;;;;4954264;28;20463;-67
2023/06/28 09:31:45;;;;;;;2.73;1.10;;;24.50;99.90;;;;;;4956868;28;20991;-67
2023/06/28 09:34:46;;;;;;;0.80;0.80;;;24.40;99.90;;;;;;4960267;28;20464;-68
2023/06/28 09:37:32;;;;;;;0.70;0.70;;;24.50;99.90;;;;;;4894515;29;20483;-68
2023/06/28 09:40:17;;;;;;;1.93;0.97;;;24.50;99.90;;;;;;4953304;28;20899;-68
2023/06/28 09:45:48;;;;;;;1.27;0.90;;;24.00;99.90;;;;;;4969389;28;20453;-67
2023/06/28 09:48:15;;;;;;;1.23;1.10;;;23.90;99.90;;;;;;4966046;28;20941;-67
2023/06/28 09:50:44;;;;;;;1.73;0.80;;;24.10;99.90;;;;;;4973199;28;20491;-67
2023/06/28 09:53:13;;;;;;;4.67;1.03;;;24.00;99.90;;;;;;4972715;28;20494;-68
2023/06/28 09:55:41;;;;;;;0.67;0.67;;;23.90;99.90;;;;;;4973349;28;20525;-67
2023/06/28 09:58:09;;;;;;;1.17;1.17;;;23.90;99.90;;;;;;4973376;28;20481;-70
2023/06/28 10:00:38;;;;;;;1.20;0.70;;;24.20;99.90;;;;;;4972220;28;21010;-69
2023/06/28 10:03:07;;;;;;;3.80;1.03;;;24.40;99.90;;;;;;4973741;28;20903;-69
2023/06/28 10:05:36;;;;;;;1.33;1.00;;;24.50;99.90;;;;;;4973677;28;20470;-70
2023/06/28 10:08:07;;;;;;;0.70;0.70;;;24.50;99.90;;;;;;4973459;28;20546;-71
2023/06/28 10:10:36;;;;;;;1.00;1.00;;;24.60;99.90;;;;;;4973590;28;20509;-69
2023/06/28 10:13:04;;;;;;;0.93;0.93;;;24.50;99.90;;;;;;4973465;28;20479;-70
2023/06/28 10:15:37;;;;;;;0.90;0.90;;;24.40;99.90;;;;;;4971851;28;20468;-72
2023/06/28 10:18:04;;;;;;;1.07;0.90;;;24.30;99.90;;;;;;4972995;28;20514;-69
2023/06/28 10:20:31;;;;;;;1.00;1.00;;;24.10;99.90;;;;;;4973012;28;20467;-70
2023/06/28 10:22:59;;;;;;;1.10;1.10;;;24.00;99.90;;;;;;4972656;28;20463;-70
2023/06/28 10:25:28;;;;;;;1.47;1.10;;;24.00;99.90;;;;;;4973033;28;21026;-68
2023/06/28 10:27:55;;;;;;;0.60;0.60;;;23.80;99.90;;;;;;4968295;28;20470;-71
2023/06/28 10:30:23;;;;;;;1.10;1.10;;;23.50;99.90;;;;;;4968294;28;20472;-68
2023/06/28 10:32:51;;;;;;;0.70;0.70;;;23.40;99.90;;;;;;4972681;28;20465;-68
2023/06/28 10:35:18;;;;;;;1.10;1.10;;;23.40;99.90;;;;;;4973052;28;20560;-67
2023/06/28 10:37:45;;;;;;;1.40;1.13;;;23.50;99.90;;;;;;4971970;28;20985;-71
2023/06/28 10:40:13;;;;;;;1.10;1.10;;;23.60;99.90;;;;;;4972661;28;20468;-68
2023/06/28 10:42:41;;;;;;;1.03;0.93;;;23.90;99.90;;;;;;4961018;28;20478;-69
2023/06/28 10:45:09;;;;;;;1.00;1.00;;;24.10;99.90;;;;;;4972104;28;20474;-68
2023/06/28 10:47:37;;;;;;;0.93;0.90;;;24.20;99.90;;;;;;4972836;28;20898;-68
2023/06/28 10:50:11;;;;;;;1.07;1.07;;;24.40;99.90;;;;;;4971190;28;20475;-68
2023/06/28 10:52:45;;;;;;;0.60;0.60;;;24.40;99.90;;;;;;4972184;28;20493;-70
2023/06/28 10:55:12;;;;;;;1.60;0.90;;;24.20;99.90;;;;;;4970536;28;20478;-70
2023/06/28 10:57:41;;;;;;;3.90;0.93;;;24.00;99.90;;;;;;4972157;28;20479;-68
2023/06/28 11:00:10;;;;;;;1.70;1.30;;;23.60;99.90;;;;;;4972440;28;20457;-69
2023/06/28 11:02:53;;;;;;;1.10;1.10;;;23.30;99.90;;;;;;4971868;28;20499;-66
2023/06/28 11:05:39;;;;;;;0.73;0.73;;;23.30;99.90;;;;;;4970073;28;20472;-68
2023/06/28 11:08:10;;;;;;;0.90;0.90;;;23.40;99.90;;;;;;4971548;28;20470;-70
2023/06/28 11:10:38;;;;;;;1.33;1.23;;;23.40;99.90;;;;;;4971823;28;20487;-68
2023/06/28 11:13:09;;;;;;;0.80;0.80;;;23.50;99.90;;;;;;4972108;28;20463;-68
2023/06/28 11:15:36;;;;;;;1.00;0.97;;;23.70;99.90;;;;;;4971695;28;20461;-69
2023/06/28 11:18:16;;;;;;;1.53;1.53;;;23.80;99.90;;;;;;4970248;28;20490;-67
2023/06/28 11:20:54;;;;;;;0.93;0.93;;;23.90;99.90;;;;;;4971220;28;20494;-67
2023/06/28 11:23:28;;;;;;;4.10;1.30;;;23.80;99.90;;;;;;4972163;28;20465;-68
2023/06/28 11:25:57;;;;;;;1.30;1.30;;;23.60;99.90;;;;;;4971781;28;20814;-68
2023/06/28 11:28:29;;;;;;;0.90;0.90;;;23.20;99.90;;;;;;4971723;28;20497;-67
2023/06/28 11:30:56;;;;;;;1.03;1.03;;;22.90;99.90;;;;;;4971470;28;20587;-67
2023/06/28 11:33:23;;;;;;;1.10;1.10;;;22.90;99.90;;;;;;4970219;28;20478;-67
2023/06/28 11:35:51;;;;;;;0.90;0.90;;;22.80;99.90;;;;;;4971337;28;20473;-69
2023/06/28 11:38:19;;;;;;;1.00;1.00;;;22.80;99.90;;;;;;4971700;28;21003;-69
2023/06/28 11:40:47;;;;;;;5.00;1.00;;;22.90;99.90;;;;;;4971628;28;20495;-69
2023/06/28 11:43:14;;;;;;;3.63;1.50;;;23.20;99.90;;;;;;4970890;28;20475;-69
2023/06/28 11:45:42;;;;;;;1.20;1.20;;;23.60;99.90;;;;;;4970777;28;20818;-68
2023/06/28 11:48:11;;;;;;;1.13;1.13;;;23.50;99.90;;;;;;4969663;28;20474;-70
2023/06/28 11:50:38;;;;;;;1.00;1.00;;;23.40;99.90;;;;;;4971528;28;20482;-70
2023/06/28 11:53:06;;;;;;;1.10;1.10;;;23.50;99.90;;;;;;4971036;28;20993;-70
2023/06/28 11:55:33;;;;;;;2.20;1.27;;;23.60;99.90;;;;;;4971274;28;20482;-70
2023/06/28 11:58:00;;;;;;;0.83;0.83;;;23.50;99.90;;;;;;4971445;28;20464;-68
2023/06/28 12:00:38;;;;;;;2.10;1.40;;;23.60;99.90;;;;;;4970202;28;20603;-69
2023/06/28 12:03:06;;;;;;;0.93;0.93;;;23.50;99.90;;;;;;4971359;28;20478;-68
2023/06/28 12:05:33;;;;;;;1.93;1.60;;;23.70;99.90;;;;;;4971217;28;20475;-70
2023/06/28 12:07:59;;;;;;;0.67;0.67;;;23.70;99.90;;;;;;4970636;28;20471;-70
2023/06/28 12:10:33;;;;;;;2.10;1.03;;;23.50;99.90;;;;;;4971699;28;20466;-70
2023/06/28 12:13:00;;;;;;;0.93;0.93;;;23.20;99.90;;;;;;4970829;28;20965;-70
2023/06/28 12:15:26;;;;;;;2.30;1.37;;;23.30;99.90;;;;;;4970915;28;20473;-70
2023/06/28 12:17:53;;;;;;;3.50;1.10;;;23.50;99.90;;;;;;4971264;28;20479;-70
2023/06/28 12:20:22;;;;;;;0.97;0.97;;;23.60;99.90;;;;;;4971767;28;20495;-69
2023/06/28 12:22:49;;;;;;;0.93;0.90;;;23.70;99.90;;;;;;4974243;28;20759;-70
2023/06/28 12:25:25;;;;;;;0.90;0.90;;;23.80;99.90;;;;;;4974478;28;20475;-69
2023/06/28 12:28:01;;;;;;;1.03;1.03;;;23.80;99.90;;;;;;4974586;28;20470;-69
2023/06/28 12:30:27;;;;;;;1.80;1.00;;;23.80;99.90;;;;;;4974461;28;20847;-70
2023/06/28 12:32:57;;;;;;;0.97;0.97;;;24.00;99.90;;;;;;4974626;28;20538;-70
2023/06/28 12:35:27;;;;;;;1.80;1.00;;;24.10;99.90;;;;;;4974906;28;20474;-70
2023/06/28 12:37:55;;;;;;;0.90;0.90;;;24.00;99.90;;;;;;4974496;28;20479;-70
2023/06/28 12:40:24;;;;;;;1.43;1.03;;;24.10;99.90;;;;;;4975147;28;20501;-70
2023/06/28 12:43:08;;;;;;;0.90;0.90;;;24.20;99.90;;;;;;4974262;28;20480;-70
2023/06/28 12:45:43;;;;;;;1.10;1.10;;;24.10;99.90;;;;;;4973614;28;20458;-70
2023/06/28 12:48:10;;;;;;;1.13;1.13;;;23.80;99.90;;;;;;4975395;28;20479;-70
2023/06/28 12:50:38;;;;;;;0.93;0.90;;;23.90;99.90;;;;;;4975541;28;21007;-68
2023/06/28 12:53:05;;;;;;;1.20;1.20;;;23.90;99.90;;;;;;4974649;28;20475;-68
2023/06/28 12:55:32;;;;;;;3.67;1.50;;;24.00;99.90;;;;;;4974375;28;20468;-68
2023/06/28 12:57:58;;;;;;;1.20;0.90;;;24.00;99.90;;;;;;4974330;28;20461;-69
2023/06/28 13:00:25;;;;;;;1.30;1.13;;;24.00;99.90;;;;;;4980766;28;20495;-70
2023/06/28 13:02:52;;;;;;;0.60;0.60;;;24.00;99.90;;;;;;4980553;28;20464;-69
2023/06/28 13:05:19;;;;;;;0.57;0.57;;;23.80;99.90;;;;;;4980718;28;20480;-70
2023/06/28 13:07:47;;;;;;;2.23;1.70;;;23.90;99.90;;;;;;4980619;28;20460;-70
2023/06/28 13:10:14;;;;;;;0.60;0.60;;;23.90;99.90;;;;;;4980836;28;20467;-70
2023/06/28 13:12:44;;;;;;;1.00;1.00;;;23.90;99.90;;;;;;4980149;28;20980;-70
2023/06/28 13:15:11;;;;;;;0.87;0.87;;;24.00;99.90;;;;;;4980227;28;20464;-69
2023/06/28 13:17:38;;;;;;;1.60;1.23;;;24.10;99.90;;;;;;4981537;28;20466;-71
2023/06/28 13:20:06;;;;;;;0.90;0.90;;;24.30;99.90;;;;;;4982201;28;20488;-71
2023/06/28 13:22:32;;;;;;;0.90;0.90;;;24.40;99.90;;;;;;4980156;28;20500;-71
2023/06/28 13:25:01;;;;;;;1.77;0.80;;;24.50;99.90;;;;;;4980847;28;20464;-73
2023/06/28 13:27:28;;;;;;;1.20;1.13;;;24.60;99.90;;;;;;4981271;28;20469;-70
2023/06/28 13:29:55;;;;;;;0.90;0.90;;;24.60;99.90;;;;;;4981607;28;20482;-72
2023/06/28 13:32:21;;;;;;;0.57;0.57;;;24.40;99.90;;;;;;4981464;28;20493;-71
2023/06/28 13:34:48;;;;;;;0.97;0.97;;;24.10;99.90;;;;;;4981925;28;20469;-71
2023/06/28 13:37:15;;;;;;;1.13;0.80;;;24.20;99.90;;;;;;4979800;28;20465;-70
2023/06/28 13:39:41;;;;;;;0.87;0.80;;;24.30;99.90;;;;;;4979892;28;20488;-70
2023/06/28 13:42:10;;;;;;;0.70;0.70;;;24.40;99.90;;;;;;4979996;28;20484;-71
2023/06/28 13:44:36;;;;;;;0.77;0.77;;;24.40;99.90;;;;;;4977674;28;20957;-70
2023/06/28 13:47:03;;;;;;;1.90;1.10;;;24.60;99.90;;;;;;4977911;28;20468;-72
2023/06/28 13:49:32;;;;;;;0.83;0.83;;;24.80;99.90;;;;;;4983243;28;20466;-70
2023/06/28 13:51:59;;;;;;;1.20;1.20;;;24.80;99.90;;;;;;4981543;28;20490;-70
2023/06/28 13:54:25;;;;;;;1.23;1.03;;;24.90;99.90;;;;;;4980323;28;20470;-72
2023/06/28 13:56:52;;;;;;;0.77;0.77;;;25.00;99.90;;;;;;4983520;28;20466;-69
2023/06/28 13:59:20;;;;;;;1.00;0.90;;;25.00;99.90;;;;;;4985151;28;21008;-70
2023/06/28 14:01:49;;;;;;;1.07;1.07;;;25.10;99.90;;;;;;4984809;28;20494;-71
2023/06/28 14:04:16;;;;;;;0.97;0.73;;;24.90;99.90;;;;;;4985522;28;21031;-70
2023/06/28 14:06:42;;;;;;;1.70;0.60;;;24.70;99.90;;;;;;4984504;28;20481;-69
2023/06/28 14:09:09;;;;;;;0.77;0.77;;;24.50;99.90;;;;;;4984427;28;20931;-70
2023/06/28 14:11:36;;;;;;;0.77;0.77;;;24.50;99.90;;;;;;4984858;28;21007;-71
2023/06/28 14:14:02;;;;;;;0.70;0.70;;;24.40;99.90;;;;;;4984869;28;20481;-70
2023/06/28 14:16:31;;;;;;;0.73;0.73;;;24.40;99.90;;;;;;4986369;28;20472;-70
2023/06/28 14:18:57;;;;;;;0.63;0.60;;;24.30;99.90;;;;;;4987118;28;20465;-70
2023/06/28 14:21:24;;;;;;;3.07;1.03;;;24.40;99.90;;;;;;4978034;28;20486;-70
2023/06/28 14:23:51;;;;;;;0.40;0.40;;;24.50;99.90;;;;;;4979412;28;20468;-67
2023/06/28 14:26:17;;;;;;;0.83;0.83;;;24.50;99.90;;;;;;4978989;28;20484;-69
2023/06/28 14:28:44;;;;;;;2.20;1.00;;;24.40;99.90;;;;;;4979049;28;20469;-71
2023/06/28 14:31:14;;;;;;;0.90;0.63;;;24.40;99.90;;;;;;4978526;28;20575;-70
2023/06/28 14:33:47;;;;;;;1.10;1.10;;;24.30;99.90;;;;;;4978883;28;20469;-70
2023/06/28 14:36:13;;;;;;;0.70;0.70;;;24.30;99.90;;;;;;4977278;28;20997;-70
2023/06/28 14:38:40;;;;;;;0.50;0.50;;;24.30;99.90;;;;;;4977180;28;20467;-70
2023/06/28 14:41:07;;;;;;;1.03;0.77;;;24.40;99.90;;;;;;4977715;28;20496;-69
2023/06/28 14:43:34;;;;;;;1.70;1.70;;;24.40;99.90;;;;;;4977388;28;20895;-69
2023/06/28 14:46:01;;;;;;;2.00;0.70;;;24.30;99.90;;;;;;4977117;28;20473;-70
2023/06/28 14:48:27;;;;;;;0.57;0.57;;;24.30;99.90;;;;;;4977938;28;20465;-70
2023/06/28 14:50:55;;;;;;;1.23;0.63;;;24.40;99.90;;;;;;4977893;28;20486;-69
2023/06/28 14:53:22;;;;;;;0.83;0.83;;;24.60;99.90;;;;;;4977683;28;20580;-69
2023/06/28 14:55:49;;;;;;;0.43;0.43;;;24.90;99.90;;;;;;4977993;28;20470;-69
2023/06/28 14:58:15;;;;;;;0.50;0.50;;;25.10;99.90;;;;;;4979325;28;20549;-70
2023/06/28 15:00:42;;;;;;;0.50;0.50;;;25.30;99.90;;;;;;4976709;28;20505;-69
2023/06/28 15:03:11;;;;;;;2.23;1.10;;;25.30;99.90;;;;;;4977086;28;20467;-69
2023/06/28 15:05:38;;;;;;;0.60;0.60;;;25.30;99.90;;;;;;4977256;28;20553;-70
2023/06/28 15:08:06;;;;;;;1.03;1.03;;;25.40;99.90;;;;;;4977670;28;20463;-71
2023/06/28 15:10:34;;;;;;;0.63;0.50;;;25.50;99.90;;;;;;4976995;28;20495;-69
2023/06/28 15:13:01;;;;;;;0.70;0.70;;;25.60;99.90;;;;;;4977570;28;20468;-71
2023/06/28 15:15:28;;;;;;;0.47;0.47;;;25.50;99.90;;;;;;4976445;28;20549;-69
2023/06/28 15:17:55;;;;;;;3.27;0.70;;;25.40;99.90;;;;;;4975909;28;20565;-71
2023/06/28 15:20:22;;;;;;;0.77;0.77;;;25.40;99.90;;;;;;4977387;28;20809;-71
2023/06/28 15:22:49;;;;;;;1.70;0.60;;;25.30;99.90;;;;;;4973356;28;20459;-69
2023/06/28 15:25:17;;;;;;;0.90;0.90;;;25.20;99.90;;;;;;4973141;28;20467;-69
2023/06/28 15:27:43;;;;;;;0.70;0.70;;;25.20;99.90;;;;;;4973886;28;20478;-69
2023/06/28 15:30:11;;;;;;;2.10;1.00;;;25.50;99.90;;;;;;4972696;28;20466;-70
2023/06/28 15:32:38;;;;;;;0.73;0.73;;;25.70;99.90;;;;;;4972923;28;20879;-69
2023/06/28 15:35:06;;;;;;;0.60;0.60;;;25.80;99.90;;;;;;4972970;28;20558;-68
2023/06/28 15:37:32;;;;;;;0.60;0.60;;;25.80;99.90;;;;;;4972462;28;20483;-68
2023/06/28 15:39:59;;;;;;;0.60;0.60;;;25.70;99.90;;;;;;4973216;28;20488;-69
2023/06/28 15:42:27;;;;;;;0.60;0.60;;;25.80;99.90;;;;;;4972943;28;20493;-69
2023/06/28 15:44:54;;;;;;;0.67;0.57;;;26.00;99.90;;;;;;4970667;28;20484;-70
2023/06/28 15:47:20;;;;;;;3.07;1.37;;;26.00;99.90;;;;;;4972245;28;20471;-70
2023/06/28 15:49:47;;;;;;;0.50;0.50;;;25.90;99.90;;;;;;4972566;28;20474;-70
2023/06/28 15:52:14;;;;;;;0.53;0.53;;;25.90;99.90;;;;;;4973983;28;20484;-71
2023/06/28 15:54:43;;;;;;;1.00;1.00;;;26.00;99.90;;;;;;4973646;28;20490;-70
2023/06/28 15:57:11;;;;;;;1.70;1.70;;;26.00;99.90;;;;;;4975674;28;20463;-72
2023/06/28 15:59:39;;;;;;;1.00;1.00;;;26.00;99.90;;;;;;4975867;28;20514;-71
2023/06/28 16:02:07;;;;;;;1.17;1.17;;;25.90;99.90;;;;;;4975931;28;20512;-71
2023/06/28 16:04:34;;;;;;;1.30;1.10;;;25.90;99.90;;;;;;4976051;28;20476;-71
2023/06/28 16:07:01;;;;;;;0.63;0.63;;;26.00;99.90;;;;;;4975524;28;20559;-70
2023/06/28 16:09:28;;;;;;;0.93;0.90;;;26.00;99.90;;;;;;4975858;28;20838;-70
2023/06/28 16:11:54;;;;;;;0.67;0.67;;;25.70;99.90;;;;;;4975654;28;20585;-71
2023/06/28 16:14:21;;;;;;;1.20;1.20;;;25.50;99.90;;;;;;4975246;28;20837;-70
2023/06/28 16:16:49;;;;;;;0.80;0.80;;;25.50;99.90;;;;;;4975761;28;20471;-71
2023/06/28 16:19:16;;;;;;;8.13;1.10;;;25.60;99.90;;;;;;4975889;28;20988;-69
2023/06/28 16:21:43;;;;;;;1.00;1.00;;;25.60;99.90;;;;;;4975854;28;20483;-70
2023/06/28 16:24:10;;;;;;;0.90;0.90;;;25.50;99.90;;;;;;4980412;28;20834;-69
2023/06/28 16:26:36;;;;;;;1.20;1.20;;;25.30;99.90;;;;;;4980817;28;20466;-70
2023/06/28 16:29:03;;;;;;;1.63;0.80;;;25.10;99.90;;;;;;4978847;28;20466;-68
2023/06/28 16:31:32;;;;;;;0.97;0.97;;;25.00;99.90;;;;;;4974607;28;20485;-67
2023/06/28 16:34:00;;;;;;;1.00;1.00;;;24.70;99.90;;;;;;4974854;28;20497;-69
2023/06/28 16:36:28;;;;;;;0.93;0.93;;;24.50;99.90;;;;;;4974509;28;20475;-68
2023/06/28 16:38:55;;;;;;;2.17;1.00;;;24.30;99.90;;;;;;4974833;28;20937;-67
2023/06/28 16:41:22;;;;;;;1.37;1.10;;;24.20;99.90;;;;;;4974768;28;20514;-70
2023/06/28 16:43:48;;;;;;;0.90;0.90;;;24.00;99.90;;;;;;4975203;28;20468;-67
2023/06/28 16:46:15;;;;;;;1.07;0.80;;;23.90;99.90;;;;;;4975175;28;20482;-68
2023/06/28 16:48:42;;;;;;;0.90;0.90;;;23.60;99.90;;;;;;4975896;28;20472;-68
2023/06/28 16:51:13;;;;;;;1.17;1.17;;;23.60;99.90;;;;;;4975107;28;20487;-67
2023/06/28 16:53:39;;;;;;;0.77;0.77;;;23.50;99.90;;;;;;4975452;28;20818;-68
2023/06/28 16:56:06;;;;;;;1.10;1.10;;;23.50;99.90;;;;;;4974707;28;20467;-68
2023/06/28 16:58:33;;;;;;;1.20;1.20;;;23.30;99.90;;;;;;4975137;28;20477;-69
2023/06/28 17:01:00;;;;;;;1.20;1.13;;;23.30;99.90;;;;;;4974410;28;20502;-68
2023/06/28 17:03:26;;;;;;;1.00;1.00;;;23.20;99.90;;;;;;4974427;28;20470;-68
2023/06/28 17:06:29;;;;;;;1.67;1.30;;;23.10;99.90;;;;;;4973561;28;20489;-68
2023/06/28 17:16:19;;;;;;;1.03;1.00;;;22.90;99.90;;;;;;4972500;28;20466;-68
2023/06/28 17:19:10;;;;;;;0.90;0.90;;;22.90;99.90;;;;;;4974162;28;20567;-69
2023/06/28 17:21:37;;;;;;;0.93;0.93;;;22.90;99.90;;;;;;4974877;28;20494;-68
2023/06/28 17:24:06;;;;;;;0.80;0.80;;;22.90;99.90;;;;;;4979151;28;20466;-70
2023/06/28 17:26:34;;;;;;;1.23;1.23;;;22.90;99.90;;;;;;4979264;28;20787;-69
2023/06/28 17:29:01;;;;;;;0.93;0.93;;;22.90;99.90;;;;;;4978507;28;20561;-69